Aeroporto :
LOGIN :

Iscrizione | Disclaimer

   EN    FR    IT 

 










Sommario :    VFR   VFR Marginale   IFR   IFR Intensivo   IFR Molto Intensivo
Visibilità : 
Base nubi : 
>= 8 km
>= 3000ft
5 / 8 km
1000 / 3000 ft
1500m / 5 km
500 / 1000 ft
800 / 1500m
200 / 500 ft
< 800m
< 200 ft
Simboli :   Temporali  Nebbia  Neve Forte  Precipitazioni Forti  Vento > 20 kt
SIGMETs :   Varie  Temporali  Ghiacco  Turbolenza  Onda orograficha  Ceneri Vulcaniche







- Altitudine del aeroporto : 1367 ft
- Codice IATA : FDH


EDNY - Friedrichshafen

ULTIMO METAR :
  • 201620Z 03009KT 010V070 CAVOK 22/04 Q1023

METARs OBSOLETI :
  • 201550Z 03007KT CAVOK 22/06 Q1023
  • 201520Z 06010KT CAVOK 23/05 Q1023
  • 201450Z 06009KT CAVOK 23/06 Q1023
  • 201420Z 01006KT 330V050 CAVOK 23/03 Q1024
  • 201350Z 04007G17KT 320V090 CAVOK 22/05 Q1024

TAF TAF EDNY
Valido dal 20 a 12 ore il 21 a 12 ore UTC


201100Z 2012/2112 04005KT CAVOK
TEMPO 2012/2014 22005KT
BECMG 2110/2112 24005KT
Nessun NOTAM noto per questo aeroporto.



MetMap, La meteo Aeronautica in un colpo d'occhio ! - Copyright ORBIFLY Dicembre 2007 - Disclaimer

ORBIFLY MET'MAP TEAM :

Programmazione e sviluppo : Alexandra Zaïnal
Concezione e sviluppo : Baudouin d'Aumeries
Co-Programmazione e sviluppo : Marc-Olivier Méhu
Supporto tecnico e logistico : Manuel Goepfert
Aiuto per la traduzione : Arnaldo La Scala

Contatto : metmap@orbifly.com




FONTI E CREDITI :

   NOAA